Listerhav — ZDKC7 — position and weather

sailwx.info

Track history (hours):
 
Tides and Currents Weather Stations Pressure Air Temp Water Temp Dewpoint Dewpoint Depression Visibility Wind Speed Wind Dir Waves Ship Positions

Listerhav

Last reported at 2014-Dec-19 14:30 UTC. Time now 2014-Dec-19 15:10 UTC.
Position N 56°28' E 010°03'.

Length 88 m; draft 5.7 m.

Type: Cargo ship. MMSI: 236591000.

Date/timePositionNaut miles runAvg speedWind from/ knotsBaromVisibWave heightAir tempDewpointWater temp
2014-Dec-19 14:30N 56°28' E 010°03'0 0.0
2014-Dec-19 13:33N 56°28' E 010°03'0 0.0
2014-Dec-19 12:33N 56°28' E 010°03'0 0.0
2014-Dec-19 11:06N 56°28' E 010°03'0 0.0
2014-Dec-19 10:24N 56°28' E 010°03'0 0.0
2014-Dec-19 09:30N 56°28' E 010°03'0 0.0
2014-Dec-19 08:15N 56°28' E 010°03'0 0.0
2014-Dec-19 07:18N 56°28' E 010°03'0 0.0
2014-Dec-19 06:33N 56°28' E 010°03'0 0.0
2014-Dec-18 14:32N 56°28' E 010°03'0 0.0
2014-Dec-18 13:32N 56°28' E 010°03'0 0.0
2014-Dec-18 12:08N 56°28' E 010°03'3 0.2
2014-Dec-17 18:28N 56°28' E 010°09'5 5.2
2014-Dec-17 17:26N 56°32' E 010°14'73 8.3
2014-Dec-17 08:33N 56°12' E 012°21'7 7.5
2014-Dec-17 07:33N 56°07' E 012°32'7 6.9
2014-Dec-17 06:33N 56°02' E 012°40'7 6.6
2014-Dec-17 05:33N 55°56' E 012°44'8 7.8
2014-Dec-17 04:33N 55°48' E 012°43'8 8.1
2014-Dec-17 03:33N 55°40' E 012°41'7 6.9
2014-Dec-17 02:33N 55°33' E 012°42'8 8.2
2014-Dec-17 01:33N 55°25' E 012°42'8 7.5
2014-Dec-17 00:33N 55°18' E 012°46'8 7.7
2014-Dec-16 23:33N 55°16' E 012°59'8 7.7
2014-Dec-16 22:33N 55°15' E 013°13'10 7.8
2014-Dec-16 21:14N 55°15' E 013°31'5 8.0
2014-Dec-16 20:33N 55°15' E 013°40'8 7.6
2014-Dec-16 19:33N 55°14' E 013°54'8 7.6
2014-Dec-16 18:33N 55°14' E 014°07'7 6.7
2014-Dec-16 17:33N 55°15' E 014°18'7 6.7
2014-Dec-16 16:33N 55°20' E 014°26'7 6.7
2014-Dec-16 15:33N 55°25' E 014°34'7 6.6
2014-Dec-16 14:33N 55°29' E 014°43'7 6.8
2014-Dec-16 13:33N 55°32' E 014°54'7 7.3
2014-Dec-16 12:33N 55°36' E 015°05'8 7.7
2014-Dec-16 11:33N 55°40' E 015°17'  
2014-Dec-14 02:33N 59°38' E 024°21'9 8.8
2014-Dec-14 01:33N 59°42' E 024°36'11 8.5
2014-Dec-14 00:19N 59°43' E 024°57'0 0.0
2014-Dec-11 23:19N 59°43' E 024°57'7 8.6
2014-Dec-11 22:32N 59°43' E 024°44'8 8.6
2014-Dec-11 21:33N 59°40' E 024°28'385 9.5
2014-Dec-10 05:11N 55°34' E 015°15'6 9.7
2014-Dec-10 04:33N 55°31' E 015°06'1010.0
2014-Dec-10 03:33N 55°27' E 014°50'1010.3
2014-Dec-10 02:33N 55°21' E 014°36'10 9.9
2014-Dec-10 01:33N 55°13' E 014°24'9 9.4
2014-Dec-10 00:33N 55°10' E 014°08'10 9.7
2014-Dec-09 23:33N 55°11' E 013°51'1010.0
2014-Dec-09 22:33N 55°12' E 013°34'10 9.7
2014-Dec-09 21:29N 55°14' E 013°15'9 9.5
2014-Dec-09 20:33N 55°15' E 013°00'9 9.1
2014-Dec-09 19:33N 55°17' E 012°45'7 7.1
2014-Dec-09 18:33N 55°23' E 012°39'8 8.4
2014-Dec-09 17:33N 55°31' E 012°42'9 9.3
2014-Dec-09 16:33N 55°40' E 012°40'1 1.2
2014-Dec-09 15:32N 55°41' E 012°38'0 0.0
2014-Dec-09 14:32N 55°41' E 012°38'  
Track history (hours):
 
Tides and Currents Weather Stations Pressure Air Temp Water Temp Dewpoint Dewpoint Depression Visibility Wind Speed Wind Dir Waves Ship Positions

Listerhav

Last reported at 2014-Dec-19 14:30 UTC. Time now 2014-Dec-19 15:10 UTC.
Position N 56°28' E 010°03'.

Length 88 m; draft 5.7 m.

Type: Cargo ship. MMSI: 236591000.

Date/timePositionNaut miles runAvg speedWind from/ knotsBaromVisibWave heightAir tempDewpointWater temp
2014-Dec-19 14:30N 56°28' E 010°03'0 0.0
2014-Dec-19 13:33N 56°28' E 010°03'0 0.0
2014-Dec-19 12:33N 56°28' E 010°03'0 0.0
2014-Dec-19 11:06N 56°28' E 010°03'0 0.0
2014-Dec-19 10:24N 56°28' E 010°03'0 0.0
2014-Dec-19 09:30N 56°28' E 010°03'0 0.0
2014-Dec-19 08:15N 56°28' E 010°03'0 0.0
2014-Dec-19 07:18N 56°28' E 010°03'0 0.0
2014-Dec-19 06:33N 56°28' E 010°03'0 0.0
2014-Dec-18 14:32N 56°28' E 010°03'0 0.0
2014-Dec-18 13:32N 56°28' E 010°03'0 0.0
2014-Dec-18 12:08N 56°28' E 010°03'3 0.2
2014-Dec-17 18:28N 56°28' E 010°09'5 5.2
2014-Dec-17 17:26N 56°32' E 010°14'73 8.3
2014-Dec-17 08:33N 56°12' E 012°21'7 7.5
2014-Dec-17 07:33N 56°07' E 012°32'7 6.9
2014-Dec-17 06:33N 56°02' E 012°40'7 6.6
2014-Dec-17 05:33N 55°56' E 012°44'8 7.8
2014-Dec-17 04:33N 55°48' E 012°43'8 8.1
2014-Dec-17 03:33N 55°40' E 012°41'7 6.9
2014-Dec-17 02:33N 55°33' E 012°42'8 8.2
2014-Dec-17 01:33N 55°25' E 012°42'8 7.5
2014-Dec-17 00:33N 55°18' E 012°46'8 7.7
2014-Dec-16 23:33N 55°16' E 012°59'8 7.7
2014-Dec-16 22:33N 55°15' E 013°13'10 7.8
2014-Dec-16 21:14N 55°15' E 013°31'5 8.0
2014-Dec-16 20:33N 55°15' E 013°40'8 7.6
2014-Dec-16 19:33N 55°14' E 013°54'8 7.6
2014-Dec-16 18:33N 55°14' E 014°07'7 6.7
2014-Dec-16 17:33N 55°15' E 014°18'7 6.7
2014-Dec-16 16:33N 55°20' E 014°26'7 6.7
2014-Dec-16 15:33N 55°25' E 014°34'7 6.6
2014-Dec-16 14:33N 55°29' E 014°43'7 6.8
2014-Dec-16 13:33N 55°32' E 014°54'7 7.3
2014-Dec-16 12:33N 55°36' E 015°05'8 7.7
2014-Dec-16 11:33N 55°40' E 015°17'  
2014-Dec-14 02:33N 59°38' E 024°21'9 8.8
2014-Dec-14 01:33N 59°42' E 024°36'11 8.5
2014-Dec-14 00:19N 59°43' E 024°57'0 0.0
2014-Dec-11 23:19N 59°43' E 024°57'7 8.6
2014-Dec-11 22:32N 59°43' E 024°44'8 8.6
2014-Dec-11 21:33N 59°40' E 024°28'385 9.5
2014-Dec-10 05:11N 55°34' E 015°15'6 9.7
2014-Dec-10 04:33N 55°31' E 015°06'1010.0
2014-Dec-10 03:33N 55°27' E 014°50'1010.3
2014-Dec-10 02:33N 55°21' E 014°36'10 9.9
2014-Dec-10 01:33N 55°13' E 014°24'9 9.4
2014-Dec-10 00:33N 55°10' E 014°08'10 9.7
2014-Dec-09 23:33N 55°11' E 013°51'1010.0
2014-Dec-09 22:33N 55°12' E 013°34'10 9.7
2014-Dec-09 21:29N 55°14' E 013°15'9 9.5
2014-Dec-09 20:33N 55°15' E 013°00'9 9.1
2014-Dec-09 19:33N 55°17' E 012°45'7 7.1
2014-Dec-09 18:33N 55°23' E 012°39'8 8.4
2014-Dec-09 17:33N 55°31' E 012°42'9 9.3
2014-Dec-09 16:33N 55°40' E 012°40'1 1.2
2014-Dec-09 15:32N 55°41' E 012°38'0 0.0
2014-Dec-09 14:32N 55°41' E 012°38'  

Dump ship's entire track history